Time;durP1;ratioP1;P1;durP2;ratioP2;P2;SDS_P1;SDS_P2;PMS_P1;PMS_P2;Temp;Humidity;BMP_temperature;BMP_pressure;BME280_temperature;BME280_humidity;BME280_pressure;Samples;Min_cycle;Max_cycle;Signal;HPM_P1;HPM_P2
2021/12/12 00:01:45;;;;;;;8.60;6.75;;;;;;;;;;5022193;28;20057;-74
2021/12/12 00:04:16;;;;;;;9.30;7.07;;;;;;;;;;5004557;28;20519;-73
2021/12/12 00:06:44;;;;;;;9.15;6.70;;;;;;;;;;5009875;28;20575;-73
2021/12/12 00:09:16;;;;;;;8.40;6.97;;;;;;;;;;5009136;28;20148;-73
2021/12/12 00:11:42;;;;;;;10.50;7.30;;;;;;;;;;5008518;28;20101;-72
2021/12/12 00:14:26;;;;;;;7.63;6.63;;;;;;;;;;5011319;28;20292;-72
2021/12/12 00:16:51;;;;;;;10.23;7.10;;;;;;;;;;5014681;28;20481;-73
2021/12/12 00:19:17;;;;;;;9.88;6.97;;;;;;;;;;5023967;28;20032;-73
2021/12/12 00:21:46;;;;;;;8.95;7.78;;;;;;;;;;5021432;28;20140;-72
2021/12/12 00:24:12;;;;;;;9.48;7.13;;;;;;;;;;5014608;28;20495;-72
2021/12/12 00:26:38;;;;;;;9.15;7.57;;;;;;;;;;5019241;28;20039;-73
2021/12/12 00:29:05;;;;;;;8.82;7.07;;;;;;;;;;5017594;28;20480;-73
2021/12/12 00:31:30;;;;;;;9.90;7.68;;;;;;;;;;5021018;28;20121;-74
2021/12/12 00:33:55;;;;;;;10.27;7.43;;;;;;;;;;5017018;28;20120;-73
2021/12/12 00:36:22;;;;;;;10.05;7.40;;;;;;;;;;5008595;28;20057;-73
2021/12/12 00:38:50;;;;;;;9.63;7.75;;;;;;;;;;5003566;28;20037;-73
2021/12/12 00:41:17;;;;;;;10.18;7.53;;;;;;;;;;5019094;28;20038;-73
2021/12/12 00:43:49;;;;;;;9.10;7.30;;;;;;;;;;5013005;28;20025;-74
2021/12/12 00:46:14;;;;;;;10.02;8.07;;;;;;;;;;5017067;28;20092;-72
2021/12/12 00:48:41;;;;;;;9.43;7.88;;;;;;;;;;5016867;28;20465;-73
2021/12/12 00:51:08;;;;;;;11.00;7.90;;;;;;;;;;5017112;28;20083;-73
2021/12/12 00:53:33;;;;;;;9.48;7.82;;;;;;;;;;5011538;28;20030;-72
2021/12/12 00:55:59;;;;;;;10.07;8.02;;;;;;;;;;5008283;28;20291;-72
2021/12/12 00:58:24;;;;;;;9.80;7.97;;;;;;;;;;5009429;28;20053;-72
2021/12/12 01:01:02;;;;;;;9.70;8.10;;;;;;;;;;5008659;28;20058;-73
2021/12/12 01:03:30;;;;;;;8.43;7.38;;;;;;;;;;5011496;28;20154;-72
2021/12/12 01:05:57;;;;;;;11.48;8.15;;;;;;;;;;5014814;28;20036;-73
2021/12/12 01:08:22;;;;;;;10.27;8.23;;;;;;;;;;5018202;28;20053;-71
2021/12/12 01:10:51;;;;;;;9.98;7.97;;;;;;;;;;5014390;28;20061;-72
2021/12/12 01:13:16;;;;;;;11.05;8.00;;;;;;;;;;5016874;28;20037;-73
2021/12/12 01:15:51;;;;;;;10.48;8.85;;;;;;;;;;5021870;28;20132;-72
2021/12/12 01:18:29;;;;;;;10.48;7.72;;;;;;;;;;5023714;28;20056;-72
2021/12/12 01:21:00;;;;;;;9.35;7.70;;;;;;;;;;5018693;28;20113;-72
2021/12/12 01:23:46;;;;;;;10.30;7.97;;;;;;;;;;5015567;28;20100;-73
2021/12/12 01:26:12;;;;;;;10.77;7.95;;;;;;;;;;5020022;28;20635;-72
2021/12/12 01:28:39;;;;;;;9.63;7.95;;;;;;;;;;5015256;28;20057;-72
2021/12/12 01:31:07;;;;;;;10.55;7.97;;;;;;;;;;5019213;28;20503;-72
2021/12/12 01:33:34;;;;;;;11.13;8.73;;;;;;;;;;4997886;28;20041;-73
2021/12/12 01:36:01;;;;;;;9.43;7.53;;;;;;;;;;5013956;28;20463;-73
2021/12/12 01:41:10;;;;;;;10.75;8.13;;;;;;;;;;5011882;28;20032;-72
2021/12/12 01:43:41;;;;;;;11.18;7.97;;;;;;;;;;5035733;28;20395;-72
2021/12/12 01:46:19;;;;;;;10.80;8.40;;;;;;;;;;5038124;28;20128;-72
2021/12/12 01:48:48;;;;;;;10.73;8.30;;;;;;;;;;5015132;28;20028;-72
2021/12/12 01:51:13;;;;;;;12.20;8.90;;;;;;;;;;5019313;28;20431;-72
2021/12/12 01:53:41;;;;;;;10.35;8.27;;;;;;;;;;5017997;28;20045;-73
2021/12/12 01:56:11;;;;;;;11.55;8.45;;;;;;;;;;5014865;28;20133;-72
2021/12/12 01:58:38;;;;;;;11.45;8.63;;;;;;;;;;5016511;28;20425;-72
2021/12/12 02:01:11;;;;;;;11.82;8.93;;;;;;;;;;5015425;28;20721;-72
2021/12/12 02:03:38;;;;;;;11.05;8.88;;;;;;;;;;5010251;28;20679;-72
2021/12/12 02:06:06;;;;;;;11.20;8.38;;;;;;;;;;5007741;28;20032;-73
2021/12/12 02:08:31;;;;;;;10.30;8.18;;;;;;;;;;5007070;28;20388;-73
2021/12/12 02:10:59;;;;;;;10.95;8.13;;;;;;;;;;5005177;28;20026;-71
2021/12/12 02:13:25;;;;;;;10.20;8.30;;;;;;;;;;5008811;28;20586;-73
2021/12/12 02:15:53;;;;;;;10.23;8.25;;;;;;;;;;5016770;28;20414;-72
2021/12/12 02:18:21;;;;;;;12.02;8.68;;;;;;;;;;5017992;28;20018;-72
2021/12/12 02:21:17;;;;;;;11.88;9.25;;;;;;;;;;5019976;28;20025;-71
2021/12/12 02:24:21;;;;;;;13.93;9.68;;;;;;;;;;5036547;28;20415;-73
2021/12/12 02:37:32;;;;;;;13.32;9.50;;;;;;;;;;5024141;28;20041;-72
2021/12/12 02:39:57;;;;;;;12.38;8.70;;;;;;;;;;5011859;28;20396;-73
2021/12/12 02:42:23;;;;;;;12.18;8.68;;;;;;;;;;5036270;28;20029;-72
2021/12/12 02:44:50;;;;;;;11.63;8.93;;;;;;;;;;5018245;28;20033;-72
2021/12/12 02:47:18;;;;;;;13.15;9.75;;;;;;;;;;5022723;28;20108;-72
2021/12/12 02:52:19;;;;;;;14.82;9.52;;;;;;;;;;5017525;28;20037;-71
2021/12/12 02:54:44;;;;;;;12.75;9.50;;;;;;;;;;5020342;28;20057;-72
2021/12/12 02:57:09;;;;;;;14.07;9.65;;;;;;;;;;5021212;28;20040;-72
2021/12/12 02:59:35;;;;;;;13.15;9.40;;;;;;;;;;5020195;28;20029;-71
2021/12/12 03:02:12;;;;;;;13.48;9.55;;;;;;;;;;5018743;28;20034;-72
2021/12/12 03:04:38;;;;;;;13.02;9.13;;;;;;;;;;5014042;28;20565;-74
2021/12/12 03:07:04;;;;;;;12.88;9.40;;;;;;;;;;5016566;28;20030;-73
2021/12/12 03:09:32;;;;;;;12.90;9.10;;;;;;;;;;5020397;28;20030;-74
2021/12/12 03:12:02;;;;;;;12.30;9.52;;;;;;;;;;5018401;28;20026;-73
2021/12/12 03:14:32;;;;;;;13.55;9.55;;;;;;;;;;5012091;28;20054;-73
2021/12/12 03:16:57;;;;;;;12.48;9.35;;;;;;;;;;5012379;28;20057;-73
2021/12/12 03:19:22;;;;;;;13.15;9.48;;;;;;;;;;5008813;28;20117;-73
2021/12/12 03:21:48;;;;;;;14.35;9.63;;;;;;;;;;5008229;28;20022;-72
2021/12/12 03:24:20;;;;;;;12.60;9.73;;;;;;;;;;5012076;28;20033;-74
2021/12/12 03:26:46;;;;;;;13.73;9.50;;;;;;;;;;5015735;28;20022;-73
2021/12/12 03:29:12;;;;;;;13.20;9.85;;;;;;;;;;5019263;28;20037;-72
2021/12/12 03:31:39;;;;;;;14.20;9.43;;;;;;;;;;5024392;28;20396;-73
2021/12/12 03:34:06;;;;;;;16.42;10.52;;;;;;;;;;5018141;28;20026;-73
2021/12/12 03:36:32;;;;;;;15.05;9.95;;;;;;;;;;5014377;28;20109;-72
2021/12/12 03:38:59;;;;;;;15.90;10.52;;;;;;;;;;5017666;28;20034;-73
2021/12/12 03:41:28;;;;;;;13.25;9.77;;;;;;;;;;5018807;28;20029;-73
2021/12/12 03:43:55;;;;;;;14.80;9.55;;;;;;;;;;5025344;28;20107;-72
2021/12/12 03:46:20;;;;;;;13.95;10.07;;;;;;;;;;5016126;28;20101;-73
2021/12/12 03:48:46;;;;;;;15.35;10.43;;;;;;;;;;5021387;28;20443;-73
2021/12/12 03:51:13;;;;;;;16.50;10.75;;;;;;;;;;5024982;28;20021;-72
2021/12/12 03:53:38;;;;;;;13.82;10.55;;;;;;;;;;5019211;28;20037;-72
2021/12/12 03:56:04;;;;;;;17.17;11.57;;;;;;;;;;5024273;28;20029;-73
2021/12/12 03:58:30;;;;;;;17.63;10.73;;;;;;;;;;5013597;28;20033;-73
2021/12/12 04:01:35;;;;;;;16.27;11.15;;;;;;;;;;5020037;28;20152;-72
2021/12/12 04:04:26;;;;;;;14.63;10.05;;;;;;;;;;5009039;28;20257;-73
2021/12/12 04:06:51;;;;;;;15.45;10.88;;;;;;;;;;5006850;28;20038;-72
2021/12/12 04:09:17;;;;;;;17.08;10.65;;;;;;;;;;5011864;28;20428;-73
2021/12/12 04:12:04;;;;;;;15.57;10.93;;;;;;;;;;5002569;28;20037;-73
2021/12/12 04:14:30;;;;;;;15.95;11.18;;;;;;;;;;5011685;28;20133;-73
2021/12/12 04:16:57;;;;;;;17.48;11.52;;;;;;;;;;5021065;28;20056;-73
2021/12/12 04:19:23;;;;;;;17.17;11.23;;;;;;;;;;5017741;28;20028;-73
2021/12/12 04:21:48;;;;;;;18.77;11.63;;;;;;;;;;5007417;28;20022;-73
2021/12/12 04:24:25;;;;;;;17.50;12.07;;;;;;;;;;5010816;28;20072;-74
2021/12/12 04:26:50;;;;;;;18.67;11.95;;;;;;;;;;5010308;28;20530;-73
2021/12/12 04:29:21;;;;;;;21.67;12.77;;;;;;;;;;5016296;28;20025;-73
2021/12/12 04:31:50;;;;;;;19.38;12.40;;;;;;;;;;5014730;28;20041;-73
2021/12/12 04:34:16;;;;;;;17.50;11.82;;;;;;;;;;5015372;28;20075;-73
2021/12/12 04:36:43;;;;;;;16.98;11.57;;;;;;;;;;5015693;28;20040;-73
2021/12/12 04:39:14;;;;;;;17.50;11.73;;;;;;;;;;5015116;28;20157;-73
2021/12/12 04:41:40;;;;;;;18.38;11.35;;;;;;;;;;5015628;28;20392;-74
2021/12/12 04:44:05;;;;;;;18.17;12.07;;;;;;;;;;5019408;28;20026;-73
2021/12/12 04:49:54;;;;;;;17.90;12.00;;;;;;;;;;5015964;28;20034;-72
2021/12/12 04:52:09;;;;;;;18.88;12.13;;;;;;;;;;5015716;28;20164;-73
2021/12/12 04:54:42;;;;;;;18.85;11.77;;;;;;;;;;5036089;28;20113;-73
2021/12/12 04:57:20;;;;;;;18.75;12.25;;;;;;;;;;5004858;28;20037;-74
2021/12/12 04:59:47;;;;;;;18.17;12.48;;;;;;;;;;5005879;28;20033;-74
2021/12/12 05:02:36;;;;;;;20.13;11.85;;;;;;;;;;5024797;28;20030;-73
2021/12/12 05:05:29;;;;;;;19.38;12.18;;;;;;;;;;5024818;28;20017;-74
2021/12/12 05:08:04;;;;;;;18.75;12.32;;;;;;;;;;5016999;28;20362;-73
2021/12/12 05:10:44;;;;;;;15.45;10.63;;;;;;;;;;5025777;28;20427;-74
2021/12/12 05:13:19;;;;;;;18.77;12.18;;;;;;;;;;5008421;28;20079;-74
2021/12/12 05:16:10;;;;;;;21.17;12.05;;;;;;;;;;5014546;28;20027;-73
2021/12/12 05:18:46;;;;;;;18.83;12.70;;;;;;;;;;5032772;28;20045;-72
2021/12/12 05:21:12;;;;;;;20.10;12.45;;;;;;;;;;5013675;28;20026;-73
2021/12/12 05:23:39;;;;;;;19.45;12.07;;;;;;;;;;5019230;28;20181;-73
2021/12/12 05:26:25;;;;;;;19.95;11.73;;;;;;;;;;5004991;28;20234;-73
2021/12/12 05:28:58;;;;;;;20.65;13.30;;;;;;;;;;5017443;28;20041;-73
2021/12/12 05:31:24;;;;;;;21.08;13.02;;;;;;;;;;5013945;28;20138;-74
2021/12/12 05:33:50;;;;;;;17.13;11.15;;;;;;;;;;5015089;28;20500;-73
2021/12/12 05:36:16;;;;;;;20.50;12.85;;;;;;;;;;5009239;28;20061;-74
2021/12/12 05:38:41;;;;;;;20.05;12.23;;;;;;;;;;5015827;28;20049;-73
2021/12/12 05:41:06;;;;;;;19.55;12.00;;;;;;;;;;5009727;28;20072;-74
2021/12/12 05:43:32;;;;;;;18.75;12.40;;;;;;;;;;5031257;28;20088;-74
2021/12/12 05:45:57;;;;;;;17.33;10.80;;;;;;;;;;5025317;28;20185;-73
2021/12/12 05:48:22;;;;;;;16.23;11.05;;;;;;;;;;5008297;28;20072;-74
2021/12/12 05:50:48;;;;;;;17.30;11.40;;;;;;;;;;5010072;28;20038;-73
2021/12/12 05:53:14;;;;;;;18.40;11.40;;;;;;;;;;5025568;28;20021;-74
2021/12/12 05:55:39;;;;;;;16.63;11.30;;;;;;;;;;5014046;28;20467;-74
2021/12/12 05:58:08;;;;;;;17.02;11.30;;;;;;;;;;5009567;28;20030;-73
2021/12/12 06:00:36;;;;;;;16.17;11.10;;;;;;;;;;5009932;28;20041;-74
2021/12/12 06:03:01;;;;;;;16.15;10.90;;;;;;;;;;5016674;28;20033;-74
2021/12/12 06:05:27;;;;;;;17.50;11.43;;;;;;;;;;5016388;28;20052;-75
2021/12/12 06:07:55;;;;;;;18.77;11.30;;;;;;;;;;5017515;28;20018;-72
2021/12/12 06:10:21;;;;;;;14.68;10.10;;;;;;;;;;5022385;28;20343;-75
2021/12/12 06:12:46;;;;;;;16.45;10.23;;;;;;;;;;5022282;28;20033;-74
2021/12/12 06:15:14;;;;;;;13.80;9.65;;;;;;;;;;5009861;28;20399;-73
2021/12/12 06:17:39;;;;;;;18.13;10.85;;;;;;;;;;5017788;28;20021;-72
2021/12/12 06:20:06;;;;;;;15.48;10.15;;;;;;;;;;5016252;28;20088;-73
2021/12/12 06:22:31;;;;;;;15.32;10.90;;;;;;;;;;5018093;28;20037;-72
2021/12/12 06:24:56;;;;;;;15.43;10.02;;;;;;;;;;5017666;28;20078;-73
2021/12/12 06:27:22;;;;;;;17.23;10.23;;;;;;;;;;5034505;28;20038;-73
2021/12/12 06:29:51;;;;;;;14.32;9.45;;;;;;;;;;5017029;28;20552;-73
2021/12/12 06:32:16;;;;;;;17.35;11.13;;;;;;;;;;5017367;28;20123;-73
2021/12/12 06:34:42;;;;;;;16.42;11.00;;;;;;;;;;5025252;28;20029;-73
2021/12/12 06:37:07;;;;;;;16.55;11.40;;;;;;;;;;5020159;28;20022;-73
2021/12/12 06:39:32;;;;;;;15.35;10.32;;;;;;;;;;5019764;28;20586;-72
2021/12/12 06:41:58;;;;;;;12.57;8.73;;;;;;;;;;5033566;28;20484;-72
2021/12/12 06:44:23;;;;;;;12.80;8.63;;;;;;;;;;5016511;28;20037;-72
2021/12/12 06:46:48;;;;;;;14.73;9.73;;;;;;;;;;5018503;28;20045;-72
2021/12/12 06:49:14;;;;;;;13.95;9.13;;;;;;;;;;5019756;28;20025;-72
2021/12/12 06:51:54;;;;;;;13.77;8.88;;;;;;;;;;5013671;28;20056;-73
2021/12/12 06:54:20;;;;;;;15.15;9.70;;;;;;;;;;5003013;28;20025;-73
2021/12/12 06:56:47;;;;;;;14.95;9.98;;;;;;;;;;5021305;28;20025;-72
2021/12/12 06:59:13;;;;;;;14.57;9.88;;;;;;;;;;5016946;28;20021;-72
2021/12/12 07:01:38;;;;;;;16.52;10.07;;;;;;;;;;5032354;28;20076;-74
2021/12/12 07:04:07;;;;;;;13.63;9.18;;;;;;;;;;5017185;28;20083;-73
2021/12/12 07:06:32;;;;;;;18.38;9.82;;;;;;;;;;5019481;28;20040;-73
2021/12/12 07:08:59;;;;;;;14.90;9.43;;;;;;;;;;5021207;28;20646;-72
2021/12/12 07:11:26;;;;;;;13.10;9.20;;;;;;;;;;5025118;28;20033;-73
2021/12/12 07:13:51;;;;;;;13.88;9.20;;;;;;;;;;5017185;28;20030;-72
2021/12/12 07:16:17;;;;;;;12.43;8.50;;;;;;;;;;5010583;28;20022;-73
2021/12/12 07:18:43;;;;;;;13.27;8.50;;;;;;;;;;5008514;28;20038;-72
2021/12/12 07:21:10;;;;;;;12.35;8.63;;;;;;;;;;5024711;28;20033;-73
2021/12/12 07:23:35;;;;;;;14.07;8.65;;;;;;;;;;5008754;28;20532;-73
2021/12/12 07:26:04;;;;;;;13.20;8.57;;;;;;;;;;5033010;28;20029;-72
2021/12/12 07:28:29;;;;;;;12.00;7.95;;;;;;;;;;5030056;28;20038;-72
2021/12/12 07:31:01;;;;;;;13.43;8.32;;;;;;;;;;5030571;28;20068;-74
2021/12/12 07:33:28;;;;;;;21.23;12.23;;;;;;;;;;5015287;28;20026;-73
2021/12/12 07:35:54;;;;;;;32.33;15.25;;;;;;;;;;5019417;28;20078;-73
2021/12/12 07:38:19;;;;;;;33.83;16.20;;;;;;;;;;5023597;28;20569;-73
2021/12/12 07:40:45;;;;;;;24.98;12.82;;;;;;;;;;5010092;28;20599;-72
2021/12/12 07:43:10;;;;;;;20.90;11.75;;;;;;;;;;5017086;28;20030;-73
2021/12/12 07:45:35;;;;;;;18.10;10.15;;;;;;;;;;5017532;28;20045;-73
2021/12/12 07:48:01;;;;;;;14.07;9.15;;;;;;;;;;5016424;28;20120;-73
2021/12/12 07:50:27;;;;;;;16.60;8.98;;;;;;;;;;5022106;28;20060;-73
2021/12/12 07:52:52;;;;;;;10.18;7.78;;;;;;;;;;5016366;28;20026;-73
2021/12/12 07:55:18;;;;;;;12.70;8.23;;;;;;;;;;5018052;28;20037;-72
2021/12/12 07:57:43;;;;;;;10.10;6.97;;;;;;;;;;5018958;28;20037;-73
2021/12/12 08:00:12;;;;;;;11.73;7.72;;;;;;;;;;5019535;28;20021;-72
2021/12/12 08:02:38;;;;;;;12.38;7.82;;;;;;;;;;5014786;28;20629;-72
2021/12/12 08:05:06;;;;;;;11.60;7.63;;;;;;;;;;5028041;28;20040;-72
2021/12/12 08:07:33;;;;;;;14.93;8.48;;;;;;;;;;5006705;28;20046;-72
2021/12/12 08:09:58;;;;;;;12.88;8.50;;;;;;;;;;5024619;28;20030;-72
2021/12/12 08:12:27;;;;;;;11.35;8.48;;;;;;;;;;5007965;28;20026;-72
2021/12/12 08:14:53;;;;;;;13.35;9.27;;;;;;;;;;5018975;28;20902;-72
2021/12/12 08:17:20;;;;;;;13.20;7.80;;;;;;;;;;5019861;28;20021;-72
2021/12/12 08:19:45;;;;;;;11.40;8.43;;;;;;;;;;5021569;28;20025;-72
2021/12/12 08:22:11;;;;;;;11.07;7.57;;;;;;;;;;5039610;28;20026;-73
2021/12/12 08:24:37;;;;;;;10.88;7.55;;;;;;;;;;5034481;28;20195;-72
2021/12/12 08:27:04;;;;;;;11.40;7.70;;;;;;;;;;5021054;28;20033;-73
2021/12/12 08:29:30;;;;;;;9.38;6.78;;;;;;;;;;5019052;28;20025;-72
2021/12/12 08:31:55;;;;;;;9.50;7.70;;;;;;;;;;5030767;28;20118;-73
2021/12/12 08:34:20;;;;;;;10.90;8.00;;;;;;;;;;5028229;28;20057;-72
2021/12/12 08:36:48;;;;;;;10.43;7.63;;;;;;;;;;5039039;28;20037;-72
2021/12/12 08:39:13;;;;;;;11.18;7.75;;;;;;;;;;5023205;28;20029;-72
2021/12/12 08:41:39;;;;;;;11.68;7.70;;;;;;;;;;5022220;28;20032;-72
2021/12/12 08:44:06;;;;;;;12.55;8.18;;;;;;;;;;5020881;28;20398;-72
2021/12/12 08:46:31;;;;;;;11.32;7.80;;;;;;;;;;5021779;28;20076;-73
2021/12/12 08:48:56;;;;;;;9.73;7.68;;;;;;;;;;5034652;28;20057;-72
2021/12/12 08:51:30;;;;;;;11.57;8.35;;;;;;;;;;5034587;28;20112;-72
2021/12/12 08:53:56;;;;;;;12.45;8.73;;;;;;;;;;5013380;28;20096;-72
2021/12/12 08:56:41;;;;;;;11.93;8.18;;;;;;;;;;5029145;28;20104;-72
2021/12/12 08:59:06;;;;;;;11.05;7.75;;;;;;;;;;5022018;28;20538;-74
2021/12/12 09:01:31;;;;;;;11.68;7.85;;;;;;;;;;5023100;28;20045;-73
2021/12/12 09:04:01;;;;;;;10.95;7.97;;;;;;;;;;5019186;28;20029;-73
2021/12/12 09:06:29;;;;;;;10.63;7.82;;;;;;;;;;5019613;28;20031;-73
2021/12/12 09:08:58;;;;;;;10.32;7.65;;;;;;;;;;5010410;28;20120;-73
2021/12/12 09:11:58;;;;;;;11.10;8.05;;;;;;;;;;5013284;28;20087;-72
2021/12/12 09:14:36;;;;;;;10.48;7.88;;;;;;;;;;5018936;28;20038;-74
2021/12/12 09:17:26;;;;;;;8.07;6.35;;;;;;;;;;5018352;28;20025;-73
2021/12/12 09:20:10;;;;;;;11.93;7.85;;;;;;;;;;5008872;28;20052;-75
2021/12/12 09:22:41;;;;;;;9.85;7.13;;;;;;;;;;5021244;28;20040;-73
2021/12/12 09:25:11;;;;;;;12.65;7.75;;;;;;;;;;5017004;28;20053;-73
2021/12/12 09:27:48;;;;;;;9.32;6.50;;;;;;;;;;5018744;28;20424;-74
2021/12/12 09:30:16;;;;;;;15.35;7.95;;;;;;;;;;5036181;28;20028;-74
2021/12/12 09:33:18;;;;;;;8.48;6.32;;;;;;;;;;5017888;28;20408;-74
2021/12/12 09:36:06;;;;;;;4.72;4.28;;;;;;;;;;5035531;28;20030;-73
2021/12/12 09:38:43;;;;;;;3.78;3.40;;;;;;;;;;5021267;28;20026;-74
2021/12/12 09:41:35;;;;;;;4.53;3.58;;;;;;;;;;5022149;28;20033;-74
2021/12/12 09:44:13;;;;;;;4.28;3.67;;;;;;;;;;5009620;28;20034;-74
2021/12/12 09:53:03;;;;;;;3.08;2.60;;;;;;;;;;5014339;28;20080;-75
2021/12/12 09:55:34;;;;;;;3.00;2.63;;;;;;;;;;5003264;28;20086;-74
2021/12/12 09:58:03;;;;;;;3.20;2.90;;;;;;;;;;5024785;28;20040;-75
2021/12/12 10:00:50;;;;;;;3.30;3.00;;;;;;;;;;5007386;28;20045;-76
2021/12/12 10:03:45;;;;;;;3.50;3.20;;;;;;;;;;5013411;28;20037;-75
2021/12/12 10:06:29;;;;;;;2.50;2.30;;;;;;;;;;5005500;28;20480;-76
2021/12/12 10:09:14;;;;;;;2.55;2.35;;;;;;;;;;5006148;28;20608;-76
2021/12/12 10:12:07;;;;;;;3.55;2.90;;;;;;;;;;5009395;28;20044;-76
2021/12/12 10:14:42;;;;;;;3.35;3.05;;;;;;;;;;5012200;28;20056;-76
2021/12/12 10:17:11;;;;;;;;;;;;;;;;;;5009495;28;20034;-76
2021/12/12 10:19:51;;;;;;;6.68;3.45;;;;;;;;;;5009404;28;19914;-76
2021/12/12 10:22:41;;;;;;;4.00;2.90;;;;;;;;;;5007328;28;20562;-75
2021/12/12 10:25:11;;;;;;;3.50;3.00;;;;;;;;;;4999392;28;20030;-77
2021/12/12 10:27:46;;;;;;;3.05;2.75;;;;;;;;;;5007267;28;20038;-76
2021/12/12 10:30:16;;;;;;;2.78;2.58;;;;;;;;;;4991309;28;20085;-77
2021/12/12 10:33:05;;;;;;;3.22;2.97;;;;;;;;;;5006893;28;20033;-75
2021/12/12 10:35:54;;;;;;;2.70;2.50;;;;;;;;;;5007990;28;20033;-76
2021/12/12 10:38:38;;;;;;;3.50;2.25;;;;;;;;;;5024431;28;20038;-76
2021/12/12 10:41:23;;;;;;;2.80;2.60;;;;;;;;;;5008719;28;20028;-76
2021/12/12 10:43:54;;;;;;;3.40;2.80;;;;;;;;;;5004723;28;20780;-76
2021/12/12 10:46:51;;;;;;;2.72;2.30;;;;;;;;;;5006747;28;20394;-76
2021/12/12 10:49:23;;;;;;;2.40;2.20;;;;;;;;;;5009039;28;20409;-76
2021/12/12 10:51:56;;;;;;;2.67;2.47;;;;;;;;;;5009360;28;20040;-78
2021/12/12 10:54:53;;;;;;;2.22;2.13;;;;;;;;;;5019397;28;20104;-78
2021/12/12 10:57:21;;;;;;;2.78;2.40;;;;;;;;;;5009038;28;20034;-76
2021/12/12 11:00:09;;;;;;;4.45;3.13;;;;;;;;;;5004047;28;20080;-76
2021/12/12 11:02:55;;;;;;;3.53;3.15;;;;;;;;;;5006608;28;20603;-76
2021/12/12 11:05:30;;;;;;;3.88;3.40;;;;;;;;;;5006117;28;20326;-76
2021/12/12 11:08:02;;;;;;;3.75;3.38;;;;;;;;;;5002545;28;20064;-76
2021/12/12 11:10:29;;;;;;;4.97;3.60;;;;;;;;;;5009307;28;20057;-78
2021/12/12 11:13:00;;;;;;;4.95;4.00;;;;;;;;;;5013291;28;20076;-76
2021/12/12 11:15:29;;;;;;;5.78;3.45;;;;;;;;;;5011061;28;20038;-77
2021/12/12 11:18:07;;;;;;;4.18;3.53;;;;;;;;;;5010922;28;20113;-77
2021/12/12 11:20:35;;;;;;;3.45;2.95;;;;;;;;;;5009415;28;20596;-76
2021/12/12 11:23:16;;;;;;;4.38;3.08;;;;;;;;;;5026005;28;20033;-77
2021/12/12 11:25:55;;;;;;;2.17;2.08;;;;;;;;;;5009500;28;20041;-77
2021/12/12 11:28:24;;;;;;;1.75;1.65;;;;;;;;;;5021457;28;20022;-76
2021/12/12 11:31:08;;;;;;;2.35;1.80;;;;;;;;;;4995663;28;20045;-77
2021/12/12 11:33:34;;;;;;;1.60;1.50;;;;;;;;;;4986028;28;20497;-75
2021/12/12 11:36:00;;;;;;;2.70;2.13;;;;;;;;;;5024911;28;20037;-77
2021/12/12 11:38:45;;;;;;;2.60;1.67;;;;;;;;;;5007913;28;20444;-78
2021/12/12 11:41:15;;;;;;;2.22;1.70;;;;;;;;;;5020672;28;20013;-77
2021/12/12 11:43:48;;;;;;;2.00;1.90;;;;;;;;;;5026771;28;20036;-77
2021/12/12 11:46:32;;;;;;;2.15;1.80;;;;;;;;;;5046234;28;20083;-77
2021/12/12 11:49:03;;;;;;;3.30;2.00;;;;;;;;;;5024839;28;20033;-78
2021/12/12 11:51:37;;;;;;;2.00;1.77;;;;;;;;;;5019526;28;20278;-78
2021/12/12 11:54:27;;;;;;;2.20;2.00;;;;;;;;;;5021024;28;20041;-77
2021/12/12 11:57:07;;;;;;;2.40;2.20;;;;;;;;;;5016774;28;20021;-77
2021/12/12 11:59:43;;;;;;;2.13;1.92;;;;;;;;;;5026202;28;20124;-78
2021/12/12 12:02:32;;;;;;;5.35;1.77;;;;;;;;;;5018920;28;20073;-78
2021/12/12 12:05:31;;;;;;;2.25;2.05;;;;;;;;;;5024865;28;20096;-77
2021/12/12 12:08:00;;;;;;;3.60;2.13;;;;;;;;;;5020787;28;20018;-76
2021/12/12 12:10:32;;;;;;;2.60;2.00;;;;;;;;;;5026150;28;20108;-77
2021/12/12 12:13:31;;;;;;;3.28;1.90;;;;;;;;;;5015825;28;20436;-78
2021/12/12 12:16:18;;;;;;;2.03;1.77;;;;;;;;;;5024164;28;20026;-77
2021/12/12 12:19:07;;;;;;;1.90;1.80;;;;;;;;;;5019567;28;20033;-77
2021/12/12 12:21:50;;;;;;;2.03;1.83;;;;;;;;;;5027682;28;20029;-78
2021/12/12 12:24:22;;;;;;;2.17;1.98;;;;;;;;;;5030067;28;20040;-77
2021/12/12 12:27:03;;;;;;;2.00;1.73;;;;;;;;;;5027383;28;20022;-79
2021/12/12 12:29:30;;;;;;;2.13;1.90;;;;;;;;;;5028940;28;20416;-78
2021/12/12 12:32:30;;;;;;;2.15;1.95;;;;;;;;;;5024712;28;20041;-78
2021/12/12 12:35:33;;;;;;;3.45;1.98;;;;;;;;;;5027087;28;20109;-77
2021/12/12 12:38:36;;;;;;;2.97;2.20;;;;;;;;;;5030371;28;20033;-78
2021/12/12 12:41:39;;;;;;;1.98;1.80;;;;;;;;;;5029445;28;20041;-76
2021/12/12 12:44:42;;;;;;;2.28;1.98;;;;;;;;;;5028107;28;20044;-78
2021/12/12 12:47:26;;;;;;;2.10;1.90;;;;;;;;;;5031554;28;20029;-77
2021/12/12 12:50:28;;;;;;;1.90;1.80;;;;;;;;;;5029633;28;20483;-79
2021/12/12 12:53:13;;;;;;;4.28;1.90;;;;;;;;;;5029160;28;20028;-76
2021/12/12 12:55:46;;;;;;;1.58;1.48;;;;;;;;;;5030063;28;20469;-77
2021/12/12 12:58:23;;;;;;;3.83;2.10;;;;;;;;;;5026040;28;20153;-78
2021/12/12 13:00:50;;;;;;;1.80;1.70;;;;;;;;;;5027816;28;20362;-76
2021/12/12 13:03:40;;;;;;;1.90;1.80;;;;;;;;;;5025102;28;20034;-77
2021/12/12 13:06:34;;;;;;;1.85;1.75;;;;;;;;;;5025091;28;20039;-76
2021/12/12 13:09:26;;;;;;;2.13;1.85;;;;;;;;;;5021858;28;20112;-78
2021/12/12 13:12:07;;;;;;;2.20;1.65;;;;;;;;;;5023698;28;20422;-76
2021/12/12 13:14:49;;;;;;;1.83;1.73;;;;;;;;;;5039682;28;20084;-77
2021/12/12 13:17:16;;;;;;;2.10;1.80;;;;;;;;;;5031280;28;20057;-76
2021/12/12 13:20:01;;;;;;;1.95;1.85;;;;;;;;;;5021382;28;20037;-77
2021/12/12 13:22:48;;;;;;;1.90;1.80;;;;;;;;;;5020093;28;20021;-77
2021/12/12 13:25:25;;;;;;;2.25;1.83;;;;;;;;;;5038961;28;20503;-77
2021/12/12 13:28:27;;;;;;;2.20;1.92;;;;;;;;;;5022095;28;20033;-77
2021/12/12 13:31:16;;;;;;;1.88;1.70;;;;;;;;;;5016054;28;20064;-76
2021/12/12 13:33:45;;;;;;;2.20;2.00;;;;;;;;;;5024925;28;20060;-77
2021/12/12 13:36:46;;;;;;;2.08;1.55;;;;;;;;;;5022384;28;20083;-76
2021/12/12 13:39:48;;;;;;;2.25;2.05;;;;;;;;;;5023135;28;20018;-76
2021/12/12 13:42:30;;;;;;;2.72;2.10;;;;;;;;;;5026338;28;20999;-76
2021/12/12 13:45:31;;;;;;;2.45;2.10;;;;;;;;;;5024727;28;20356;-75
2021/12/12 13:48:30;;;;;;;1.88;1.70;;;;;;;;;;5019490;28;20057;-77
2021/12/12 13:51:00;;;;;;;1.73;1.63;;;;;;;;;;5024211;28;20045;-77
2021/12/12 13:53:54;;;;;;;1.83;1.73;;;;;;;;;;5022499;28;20029;-77
2021/12/12 13:56:33;;;;;;;1.77;1.65;;;;;;;;;;5023017;28;20021;-76
2021/12/12 13:59:13;;;;;;;2.10;1.90;;;;;;;;;;5039700;28;20056;-76
2021/12/12 14:01:51;;;;;;;2.13;1.92;;;;;;;;;;5025191;28;20041;-78
2021/12/12 14:04:54;;;;;;;2.17;1.98;;;;;;;;;;5022459;28;20472;-78
2021/12/12 14:07:27;;;;;;;2.30;2.10;;;;;;;;;;5027758;28;20035;-78
2021/12/12 14:09:53;;;;;;;2.08;1.90;;;;;;;;;;5040227;28;20029;-77
2021/12/12 14:12:19;;;;;;;2.25;1.95;;;;;;;;;;5008307;28;20097;-77
2021/12/12 14:14:54;;;;;;;1.98;1.88;;;;;;;;;;5008921;28;20037;-77
2021/12/12 14:17:29;;;;;;;2.85;2.20;;;;;;;;;;5023868;28;20072;-77
2021/12/12 14:20:05;;;;;;;2.28;2.08;;;;;;;;;;5025691;28;20029;-77
2021/12/12 14:22:30;;;;;;;2.53;2.30;;;;;;;;;;5023364;28;20399;-78
2021/12/12 14:24:56;;;;;;;2.42;2.05;;;;;;;;;;5041502;28;20037;-78
2021/12/12 14:27:22;;;;;;;2.65;2.10;;;;;;;;;;5024803;28;20153;-77
2021/12/12 14:29:47;;;;;;;2.55;2.00;;;;;;;;;;5041478;28;20022;-77
2021/12/12 14:32:14;;;;;;;2.30;2.10;;;;;;;;;;5022805;28;20027;-77
2021/12/12 14:35:25;;;;;;;2.38;2.13;;;;;;;;;;5016477;28;20763;-78
2021/12/12 14:37:52;;;;;;;2.80;2.38;;;;;;;;;;5011011;28;20124;-77
2021/12/12 14:40:29;;;;;;;4.72;2.38;;;;;;;;;;5029556;28;20021;-77
2021/12/12 14:42:59;;;;;;;5.20;2.22;;;;;;;;;;5014240;28;20400;-78
2021/12/12 14:45:45;;;;;;;3.85;2.03;;;;;;;;;;5030305;28;20494;-77
2021/12/12 14:48:14;;;;;;;2.22;2.00;;;;;;;;;;5023517;28;20022;-77
2021/12/12 14:50:47;;;;;;;2.78;2.05;;;;;;;;;;5048181;28;20083;-77
2021/12/12 14:53:15;;;;;;;2.38;2.05;;;;;;;;;;5029693;28;20754;-77
2021/12/12 14:56:05;;;;;;;2.45;2.15;;;;;;;;;;5023575;28;20037;-77
2021/12/12 14:58:32;;;;;;;3.03;2.30;;;;;;;;;;5039328;28;20112;-78
2021/12/12 15:01:10;;;;;;;2.50;2.28;;;;;;;;;;5026964;28;20060;-76
2021/12/12 15:03:38;;;;;;;2.63;2.15;;;;;;;;;;5019581;28;20510;-77
2021/12/12 15:06:31;;;;;;;8.38;3.38;;;;;;;;;;5025557;28;20491;-77
2021/12/12 15:09:03;;;;;;;3.85;2.42;;;;;;;;;;5034501;28;20027;-76
2021/12/12 15:11:34;;;;;;;3.90;2.70;;;;;;;;;;5031997;28;20463;-76
2021/12/12 15:14:00;;;;;;;4.22;3.05;;;;;;;;;;5025156;28;20073;-77
2021/12/12 15:16:36;;;;;;;4.10;2.60;;;;;;;;;;5033478;28;20088;-75
2021/12/12 15:19:16;;;;;;;3.42;2.53;;;;;;;;;;5012462;28;20661;-75
2021/12/12 15:21:48;;;;;;;2.97;2.67;;;;;;;;;;5011237;28;20018;-74
2021/12/12 15:24:24;;;;;;;3.08;2.50;;;;;;;;;;5000663;28;20400;-76
2021/12/12 15:26:58;;;;;;;5.55;2.83;;;;;;;;;;5024171;28;20099;-75
2021/12/12 15:29:24;;;;;;;3.10;2.80;;;;;;;;;;5008678;28;20388;-76
2021/12/12 15:31:52;;;;;;;3.10;2.75;;;;;;;;;;5006045;28;20284;-75
2021/12/12 15:34:21;;;;;;;5.13;3.00;;;;;;;;;;5014369;28;20025;-76